createdAt,value
2022-10-04T00:02:21.698Z,6.75
2022-10-04T00:04:53.853Z,6.97
2022-10-04T00:07:25.911Z,6.62
2022-10-04T00:09:57.139Z,6.61
2022-10-04T00:12:28.235Z,6.73
2022-10-04T00:15:00.744Z,6.65
2022-10-04T00:17:31.596Z,6.54
2022-10-04T00:19:59.659Z,6.75
2022-10-04T00:22:31.615Z,6.59
2022-10-04T00:25:20.724Z,6.48
2022-10-04T00:28:12.855Z,6.38
2022-10-04T00:30:41.280Z,6.37
2022-10-04T00:33:09.295Z,6.31
2022-10-04T00:35:48.312Z,6.30
2022-10-04T00:38:18.419Z,6.29
2022-10-04T00:40:49.704Z,6.41
2022-10-04T00:43:20.997Z,6.41
2022-10-04T00:45:52.395Z,6.40
2022-10-04T00:48:35.091Z,5.95
2022-10-04T00:51:05.946Z,5.93
2022-10-04T00:53:57.690Z,5.88
2022-10-04T00:56:30.022Z,5.69
2022-10-04T00:59:12.055Z,5.63
2022-10-04T01:01:40.523Z,5.49
2022-10-04T01:04:14.910Z,5.72
2022-10-04T01:06:44.044Z,5.75
2022-10-04T01:09:13.959Z,6.11
2022-10-04T01:11:45.954Z,5.86
2022-10-04T01:14:20.863Z,6.26
2022-10-04T01:16:49.022Z,5.92
2022-10-04T01:19:25.582Z,6.01
2022-10-04T01:21:59.043Z,5.92
2022-10-04T01:24:34.000Z,6.19
2022-10-04T01:27:02.200Z,5.73
2022-10-04T01:29:32.204Z,5.63
2022-10-04T01:32:01.374Z,5.50
2022-10-04T01:34:30.313Z,5.55
2022-10-04T01:36:59.892Z,5.72
2022-10-04T01:39:31.441Z,5.94
2022-10-04T01:42:04.573Z,5.66
2022-10-04T01:44:34.181Z,5.69
2022-10-04T01:47:04.056Z,5.71
2022-10-04T01:49:35.456Z,5.56
2022-10-04T01:52:06.547Z,5.62
2022-10-04T01:54:37.116Z,5.50
2022-10-04T01:57:08.247Z,5.30
2022-10-04T01:59:41.007Z,5.12
2022-10-04T02:02:12.008Z,5.43
2022-10-04T02:04:52.609Z,5.75
2022-10-04T02:07:20.887Z,5.48
2022-10-04T02:09:55.204Z,5.18
2022-10-04T02:12:23.821Z,5.30
2022-10-04T02:14:53.843Z,5.32
2022-10-04T02:17:22.711Z,5.22
2022-10-04T02:19:51.473Z,5.26
2022-10-04T02:22:19.988Z,5.09
2022-10-04T02:24:50.039Z,5.06
2022-10-04T02:27:19.503Z,5.19
2022-10-04T02:29:47.582Z,5.14
2022-10-04T02:32:35.832Z,4.88
2022-10-04T02:35:04.986Z,4.99
2022-10-04T02:37:33.791Z,5.12
2022-10-04T02:40:06.014Z,5.11
2022-10-04T02:42:39.791Z,5.28
2022-10-04T02:45:11.068Z,5.44
2022-10-04T02:47:45.372Z,5.37
2022-10-04T02:50:22.536Z,5.36
2022-10-04T02:52:54.628Z,5.32
2022-10-04T02:55:24.759Z,5.29
2022-10-04T02:57:55.011Z,5.34
2022-10-04T03:00:24.551Z,5.26
2022-10-04T03:03:11.376Z,4.99
2022-10-04T03:05:39.795Z,5.12
2022-10-04T03:08:08.445Z,4.83
2022-10-04T03:10:36.811Z,5.25
2022-10-04T03:13:06.659Z,5.04
2022-10-04T03:15:34.810Z,4.79
2022-10-04T03:18:02.975Z,5.07
2022-10-04T03:20:31.111Z,5.04
2022-10-04T03:22:59.172Z,5.05
2022-10-04T03:25:30.202Z,4.83
2022-10-04T03:28:01.813Z,4.89
2022-10-04T03:30:32.226Z,4.76
2022-10-04T03:33:00.839Z,5.03
2022-10-04T03:35:34.083Z,4.99
2022-10-04T03:38:05.879Z,4.73
2022-10-04T03:40:34.310Z,4.62
2022-10-04T03:43:03.160Z,4.91
2022-10-04T03:45:34.347Z,5.02
2022-10-04T03:48:05.911Z,5.56
2022-10-04T03:50:35.634Z,5.62
2022-10-04T03:53:08.254Z,5.09
2022-10-04T03:55:39.077Z,5.26
2022-10-04T03:58:10.391Z,5.30
2022-10-04T04:00:43.108Z,5.41
2022-10-04T04:03:17.128Z,5.49
2022-10-04T04:05:48.329Z,5.42
2022-10-04T04:08:20.592Z,5.40
2022-10-04T04:10:50.812Z,5.60
2022-10-04T04:13:23.975Z,5.64
2022-10-04T04:15:55.273Z,5.64
2022-10-04T04:18:24.496Z,5.68
2022-10-04T04:20:53.997Z,5.16
2022-10-04T04:23:24.395Z,5.34
2022-10-04T04:25:55.381Z,5.36
2022-10-04T04:28:26.371Z,5.54
2022-10-04T04:30:58.067Z,5.56
2022-10-04T04:33:29.441Z,5.63
2022-10-04T04:36:04.136Z,5.61
2022-10-04T04:38:32.615Z,5.64
2022-10-04T04:41:09.823Z,5.59
2022-10-04T04:43:43.915Z,5.35
2022-10-04T04:46:28.380Z,5.19
2022-10-04T04:49:01.871Z,5.30
2022-10-04T04:51:31.498Z,5.37
2022-10-04T04:54:00.218Z,5.42
2022-10-04T04:56:29.946Z,5.27
2022-10-04T04:59:01.600Z,5.15
2022-10-04T05:01:34.455Z,5.07
2022-10-04T05:04:03.172Z,5.01
2022-10-04T05:06:32.606Z,5.10
2022-10-04T05:09:00.614Z,5.35
2022-10-04T05:11:32.883Z,5.53
2022-10-04T05:14:02.628Z,5.61
2022-10-04T05:16:37.815Z,5.97
2022-10-04T05:19:08.567Z,5.78
2022-10-04T05:21:40.826Z,5.38
2022-10-04T05:24:12.233Z,5.44
2022-10-04T05:26:42.585Z,5.79
2022-10-04T05:29:13.038Z,5.90
2022-10-04T05:31:46.617Z,6.08
2022-10-04T05:34:20.143Z,5.67
2022-10-04T05:36:53.827Z,5.65
2022-10-04T05:39:26.053Z,5.94
2022-10-04T05:41:59.009Z,6.32
2022-10-04T05:44:27.755Z,5.77
2022-10-04T05:46:58.077Z,5.68
2022-10-04T05:49:27.289Z,5.60
2022-10-04T05:51:56.932Z,5.56
2022-10-04T05:54:25.829Z,5.64
2022-10-04T05:57:03.943Z,6.08
2022-10-04T05:59:41.195Z,6.57
2022-10-04T06:02:20.150Z,6.13
2022-10-04T06:05:02.902Z,6.22
2022-10-04T06:07:36.039Z,5.98
2022-10-04T06:10:17.044Z,6.17
2022-10-04T06:12:49.338Z,6.35
2022-10-04T06:15:24.670Z,6.53
2022-10-04T06:18:08.978Z,6.29
2022-10-04T06:20:54.806Z,6.49
2022-10-04T06:23:24.116Z,6.70
2022-10-04T06:25:54.791Z,6.91
2022-10-04T06:28:25.065Z,6.87
2022-10-04T06:31:05.396Z,7.12
2022-10-04T06:33:44.049Z,7.03
2022-10-04T06:36:33.303Z,6.61
2022-10-04T06:39:07.871Z,6.62
2022-10-04T06:41:45.702Z,6.98
2022-10-04T06:44:23.368Z,6.89
2022-10-04T06:46:52.058Z,7.14
2022-10-04T06:49:32.937Z,7.12
2022-10-04T06:52:07.743Z,7.25
2022-10-04T06:54:43.899Z,7.16
2022-10-04T06:57:22.991Z,7.17
2022-10-04T06:59:58.863Z,7.21
2022-10-04T07:02:29.619Z,7.21
2022-10-04T07:05:08.540Z,7.12
2022-10-04T07:07:38.830Z,7.17
2022-10-04T07:10:19.225Z,7.15
2022-10-04T07:12:49.801Z,7.37
2022-10-04T07:15:22.910Z,7.42
2022-10-04T07:17:52.502Z,7.55
2022-10-04T07:20:23.997Z,7.56
2022-10-04T07:22:56.289Z,7.61
2022-10-04T07:25:27.945Z,7.55
2022-10-04T07:28:12.001Z,7.58
2022-10-04T07:30:42.968Z,7.82
2022-10-04T07:33:15.988Z,7.69
2022-10-04T07:35:48.788Z,7.60
2022-10-04T07:38:20.557Z,7.69
2022-10-04T07:41:00.038Z,7.98
2022-10-04T07:43:30.687Z,8.17
2022-10-04T07:46:04.013Z,8.98
2022-10-04T07:48:32.128Z,9.80
2022-10-04T07:51:09.261Z,9.32
2022-10-04T07:53:42.917Z,9.56
2022-10-04T07:56:12.752Z,9.69
2022-10-04T07:58:46.453Z,9.81
2022-10-04T08:01:21.644Z,9.14
2022-10-04T08:03:58.271Z,9.38
2022-10-04T08:06:31.523Z,9.96
2022-10-04T08:09:09.284Z,9.62
2022-10-04T08:11:45.092Z,9.70
2022-10-04T08:14:22.974Z,9.94
2022-10-04T08:16:55.944Z,9.85
2022-10-04T08:19:33.312Z,10.39
2022-10-04T08:22:04.911Z,10.13
2022-10-04T08:24:36.515Z,10.39
2022-10-04T08:27:14.088Z,10.22
2022-10-04T08:29:47.904Z,9.92
2022-10-04T08:32:23.223Z,9.88
2022-10-04T08:35:02.994Z,10.09
2022-10-04T08:37:37.094Z,10.10
2022-10-04T08:40:19.181Z,9.97
2022-10-04T08:43:04.372Z,10.17
2022-10-04T08:45:43.716Z,10.35
2022-10-04T08:48:30.352Z,10.60
2022-10-04T08:51:16.348Z,10.55
2022-10-04T08:54:03.928Z,10.49
2022-10-04T08:56:43.486Z,10.37
2022-10-04T08:59:20.216Z,10.66
2022-10-04T09:02:06.809Z,10.67
2022-10-04T09:04:57.464Z,10.91
2022-10-04T09:07:38.591Z,10.58
2022-10-04T09:10:34.516Z,11.11
2022-10-04T09:13:13.373Z,11.60
2022-10-04T09:15:59.669Z,11.64
2022-10-04T09:18:46.040Z,11.51
2022-10-04T09:21:21.109Z,12.20
2022-10-04T09:24:09.156Z,12.47
2022-10-04T09:26:45.355Z,12.16
2022-10-04T09:29:28.427Z,12.72
2022-10-04T09:32:11.239Z,13.13
2022-10-04T09:34:47.030Z,13.64
2022-10-04T09:37:26.126Z,13.54
2022-10-04T09:40:21.932Z,13.75
2022-10-04T09:43:09.355Z,13.92
2022-10-04T09:45:49.132Z,13.90
2022-10-04T09:48:26.024Z,13.95
2022-10-04T09:51:09.363Z,13.93
2022-10-04T09:53:44.916Z,13.79
2022-10-04T09:56:26.777Z,13.27
2022-10-04T09:59:18.466Z,14.08
2022-10-04T10:01:52.212Z,14.01
2022-10-04T10:04:24.632Z,14.14
2022-10-04T10:07:02.192Z,14.16
2022-10-04T10:09:54.640Z,14.61
2022-10-04T10:12:53.596Z,14.99
2022-10-04T10:15:29.502Z,15.01
2022-10-04T10:18:04.784Z,14.39
2022-10-04T10:20:50.659Z,14.84
2022-10-04T10:23:30.349Z,14.51
2022-10-04T10:26:15.157Z,14.98
2022-10-04T10:29:02.558Z,15.00
2022-10-04T10:34:37.564Z,15.17
2022-10-04T10:37:10.062Z,15.26
2022-10-04T10:40:02.237Z,14.87
2022-10-04T10:42:39.987Z,15.44
2022-10-04T10:45:21.142Z,14.79
2022-10-04T10:47:53.870Z,15.96
2022-10-04T10:50:33.883Z,15.79
2022-10-04T10:53:21.745Z,15.35
2022-10-04T10:56:27.909Z,15.70
2022-10-04T10:59:12.863Z,15.26
2022-10-04T11:01:53.302Z,15.46
2022-10-04T11:04:39.156Z,15.35
2022-10-04T11:07:14.033Z,15.36
2022-10-04T11:09:55.852Z,16.14
2022-10-04T11:12:52.532Z,15.75
2022-10-04T11:15:41.256Z,15.76
2022-10-04T11:18:27.432Z,16.41
2022-10-04T11:21:16.175Z,15.80
2022-10-04T11:24:13.778Z,15.73
2022-10-04T11:26:57.953Z,15.98
2022-10-04T11:29:39.888Z,16.72
2022-10-04T11:32:32.303Z,16.32
2022-10-04T11:35:12.571Z,16.32
2022-10-04T11:37:47.299Z,16.48
2022-10-04T11:40:26.915Z,16.73
2022-10-04T11:43:05.656Z,16.11
2022-10-04T11:45:39.201Z,16.38
2022-10-04T11:48:16.784Z,16.67
2022-10-04T11:50:52.078Z,16.93
2022-10-04T11:53:39.171Z,16.71
2022-10-04T11:56:28.539Z,17.05
2022-10-04T11:59:11.882Z,16.94
2022-10-04T12:02:02.148Z,17.76
2022-10-04T12:04:41.424Z,17.76
2022-10-04T12:07:26.481Z,17.59
2022-10-04T12:10:01.055Z,17.74
2022-10-04T12:12:59.646Z,17.75
2022-10-04T12:15:41.623Z,17.49
2022-10-04T12:18:34.338Z,16.97
2022-10-04T12:21:28.976Z,17.28
2022-10-04T12:24:03.327Z,17.41
2022-10-04T12:26:43.008Z,18.02
2022-10-04T12:29:24.115Z,17.40
2022-10-04T12:31:56.513Z,17.14
2022-10-04T12:34:28.954Z,17.38
2022-10-04T12:37:13.666Z,17.21
2022-10-04T12:39:58.782Z,17.63
2022-10-04T12:42:34.969Z,17.52
2022-10-04T12:45:15.878Z,17.55
2022-10-04T12:47:54.703Z,17.94
2022-10-04T12:50:28.370Z,17.94
2022-10-04T12:53:05.050Z,17.72
2022-10-04T12:55:47.649Z,17.86
2022-10-04T12:58:21.004Z,17.68
2022-10-04T13:00:49.933Z,17.80
2022-10-04T13:03:32.539Z,17.72
2022-10-04T13:06:06.002Z,18.11
2022-10-04T13:08:41.346Z,17.64
2022-10-04T13:11:24.187Z,17.72
2022-10-04T13:14:07.783Z,17.73
2022-10-04T13:19:39.032Z,17.73
2022-10-04T13:22:26.972Z,17.93
2022-10-04T13:25:11.612Z,17.87
2022-10-04T13:27:45.567Z,17.84
2022-10-04T13:30:17.906Z,18.05
2022-10-04T13:32:52.555Z,18.09
2022-10-04T13:35:25.150Z,18.09
2022-10-04T13:38:06.569Z,17.90
2022-10-04T13:40:38.898Z,17.91
2022-10-04T13:43:20.481Z,18.15
2022-10-04T13:45:57.525Z,18.00
2022-10-04T13:48:34.728Z,18.09
2022-10-04T13:51:14.010Z,18.22
2022-10-04T13:54:06.883Z,18.56
2022-10-04T13:56:54.811Z,18.28
2022-10-04T13:59:30.825Z,18.21
2022-10-04T14:02:16.692Z,18.13
2022-10-04T14:05:05.837Z,18.09
2022-10-04T14:07:45.225Z,18.36
2022-10-04T14:10:30.911Z,18.24
2022-10-04T14:13:19.175Z,18.44
2022-10-04T14:15:52.538Z,18.71
2022-10-04T14:18:41.677Z,18.50
2022-10-04T14:21:36.222Z,18.70
2022-10-04T14:24:17.494Z,18.73
2022-10-04T14:27:11.451Z,18.57
2022-10-04T14:29:58.188Z,18.76
2022-10-04T14:32:52.021Z,18.86
2022-10-04T14:35:23.398Z,18.77
2022-10-04T14:38:08.727Z,18.43
2022-10-04T14:40:45.819Z,18.58
2022-10-04T14:43:31.674Z,18.54
2022-10-04T14:46:08.334Z,18.55
2022-10-04T14:49:02.345Z,18.54
2022-10-04T14:51:40.784Z,18.30
2022-10-04T14:54:11.241Z,18.70
2022-10-04T14:56:52.212Z,18.50
2022-10-04T14:59:30.544Z,18.57
2022-10-04T15:02:22.608Z,18.61
2022-10-04T15:05:08.704Z,18.44
2022-10-04T15:07:38.490Z,18.49
2022-10-04T15:10:11.949Z,18.41
2022-10-04T15:15:37.547Z,18.54
2022-10-04T15:18:12.819Z,18.44
2022-10-04T15:20:51.681Z,18.59
2022-10-04T15:23:27.639Z,18.37
2022-10-04T15:25:57.998Z,18.50
2022-10-04T15:28:35.086Z,18.06
2022-10-04T15:31:07.017Z,18.28
2022-10-04T15:33:40.062Z,18.17
2022-10-04T15:36:18.049Z,17.96
2022-10-04T15:38:50.650Z,18.22
2022-10-04T15:41:19.887Z,18.09
2022-10-04T15:44:11.644Z,18.01
2022-10-04T15:46:44.945Z,17.97
2022-10-04T15:49:43.453Z,17.86
2022-10-04T15:52:16.010Z,17.81
2022-10-04T15:55:03.347Z,17.80
2022-10-04T15:57:36.825Z,17.68
2022-10-04T16:00:13.305Z,17.55
2022-10-04T16:02:58.980Z,17.41
2022-10-04T16:05:32.403Z,17.43
2022-10-04T16:08:06.346Z,17.49
2022-10-04T16:10:52.876Z,17.18
2022-10-04T16:13:28.371Z,17.16
2022-10-04T16:16:26.168Z,16.97
2022-10-04T16:19:02.229Z,17.07
2022-10-04T16:21:32.787Z,17.09
2022-10-04T16:24:19.501Z,16.88
2022-10-04T16:27:17.654Z,16.89
2022-10-04T16:30:08.240Z,16.84
2022-10-04T16:32:47.304Z,16.92
2022-10-04T16:35:18.212Z,16.75
2022-10-04T16:37:55.912Z,16.49
2022-10-04T16:40:31.652Z,16.39
2022-10-04T16:43:03.842Z,16.24
2022-10-04T16:45:36.196Z,16.08
2022-10-04T16:48:13.116Z,16.10
2022-10-04T16:51:02.179Z,16.00
2022-10-04T16:53:43.733Z,15.93
2022-10-04T16:56:16.424Z,15.80
2022-10-04T16:58:49.799Z,15.77
2022-10-04T17:01:36.519Z,15.69
2022-10-04T17:04:11.264Z,15.66
2022-10-04T17:06:46.027Z,15.71
2022-10-04T17:09:19.798Z,15.69
2022-10-04T17:11:57.667Z,15.75
2022-10-04T17:14:50.723Z,15.64
2022-10-04T17:17:23.623Z,15.69
2022-10-04T17:19:55.444Z,15.64
2022-10-04T17:22:29.860Z,15.39
2022-10-04T17:25:02.468Z,15.21
2022-10-04T17:27:45.848Z,15.37
2022-10-04T17:30:18.213Z,15.39
2022-10-04T17:32:54.144Z,15.38
2022-10-04T17:35:54.535Z,15.35
2022-10-04T17:38:26.124Z,15.28
2022-10-04T17:40:59.237Z,15.28
2022-10-04T17:43:31.195Z,15.10
2022-10-04T17:46:10.662Z,14.84
2022-10-04T17:49:00.829Z,14.72
2022-10-04T17:51:52.370Z,14.81
2022-10-04T17:54:40.640Z,14.04
2022-10-04T17:57:16.452Z,13.85
2022-10-04T17:59:46.132Z,14.33
2022-10-04T18:02:21.692Z,14.37
2022-10-04T18:04:54.489Z,14.05
2022-10-04T18:07:25.935Z,14.07
2022-10-04T18:09:55.989Z,14.05
2022-10-04T18:12:27.235Z,14.14
2022-10-04T18:15:03.999Z,13.99
2022-10-04T18:17:59.953Z,13.84
2022-10-04T18:20:28.212Z,13.62
2022-10-04T18:23:01.843Z,13.83
2022-10-04T18:25:31.186Z,13.84
2022-10-04T18:28:04.511Z,13.85
2022-10-04T18:30:35.726Z,13.59
2022-10-04T18:33:06.363Z,13.49
2022-10-04T18:35:34.570Z,13.48
2022-10-04T18:38:20.901Z,13.36
2022-10-04T18:40:55.192Z,13.37
2022-10-04T18:43:27.796Z,13.36
2022-10-04T18:46:02.217Z,13.27
2022-10-04T18:48:38.099Z,12.90
2022-10-04T18:51:23.987Z,13.04
2022-10-04T18:54:02.367Z,13.11
2022-10-04T18:56:34.132Z,13.12
2022-10-04T18:59:23.780Z,12.90
2022-10-04T19:02:02.673Z,12.78
2022-10-04T19:04:36.079Z,12.18
2022-10-04T19:07:08.176Z,12.23
2022-10-04T19:09:45.991Z,12.33
2022-10-04T19:12:17.205Z,12.34
2022-10-04T19:14:49.398Z,12.41
2022-10-04T19:17:22.231Z,12.50
2022-10-04T19:19:57.013Z,12.27
2022-10-04T19:22:33.487Z,12.63
2022-10-04T19:25:16.466Z,12.64
2022-10-04T19:27:49.850Z,12.12
2022-10-04T19:30:20.580Z,12.08
2022-10-04T19:33:00.457Z,11.82
2022-10-04T19:35:37.466Z,12.02
2022-10-04T19:38:12.575Z,11.97
2022-10-04T19:40:48.433Z,11.94
2022-10-04T19:43:21.822Z,11.98
2022-10-04T19:46:05.205Z,11.97
2022-10-04T19:48:37.958Z,11.83
2022-10-04T19:51:09.091Z,12.03
2022-10-04T19:53:42.021Z,11.81
2022-10-04T19:56:17.395Z,11.78
2022-10-04T19:58:47.540Z,11.52
2022-10-04T20:01:16.600Z,11.50
2022-10-04T20:03:45.634Z,11.33
2022-10-04T20:06:21.292Z,11.43
2022-10-04T20:08:50.934Z,11.42
2022-10-04T20:11:22.797Z,11.39
2022-10-04T20:14:08.791Z,11.44
2022-10-04T20:16:57.813Z,11.52
2022-10-04T20:19:38.666Z,11.34
2022-10-04T20:22:25.516Z,11.45
2022-10-04T20:24:53.613Z,11.47
2022-10-04T20:27:37.168Z,10.88
2022-10-04T20:30:14.201Z,11.10
2022-10-04T20:32:57.339Z,11.18
2022-10-04T20:35:44.169Z,10.96
2022-10-04T20:38:31.642Z,10.60
2022-10-04T20:41:00.455Z,10.66
2022-10-04T20:43:28.505Z,10.51
2022-10-04T20:45:58.685Z,10.64
2022-10-04T20:48:31.378Z,10.71
2022-10-04T20:51:08.796Z,10.58
2022-10-04T20:53:36.956Z,10.45
2022-10-04T20:56:12.863Z,10.32
2022-10-04T20:58:41.343Z,10.70
2022-10-04T21:01:40.023Z,10.75
2022-10-04T21:04:15.171Z,11.13
2022-10-04T21:06:52.890Z,10.93
2022-10-04T21:09:23.613Z,10.44
2022-10-04T21:11:52.168Z,10.67
2022-10-04T21:14:23.955Z,10.75
2022-10-04T21:16:56.516Z,10.58
2022-10-04T21:19:50.150Z,10.06
2022-10-04T21:22:36.459Z,10.50
2022-10-04T21:25:06.410Z,10.41
2022-10-04T21:27:35.431Z,10.45
2022-10-04T21:30:04.296Z,10.25
2022-10-04T21:32:36.756Z,10.16
2022-10-04T21:35:05.774Z,10.51
2022-10-04T21:37:34.436Z,10.23
2022-10-04T21:40:02.663Z,10.35
2022-10-04T21:42:30.697Z,10.12
2022-10-04T21:44:58.720Z,10.02
2022-10-04T21:47:26.740Z,9.95
2022-10-04T21:49:56.063Z,10.04
2022-10-04T21:52:24.055Z,10.07
2022-10-04T21:54:52.019Z,9.88
2022-10-04T21:57:20.013Z,10.05
2022-10-04T22:02:37.408Z,9.88
2022-10-04T22:05:05.783Z,10.37
2022-10-04T22:07:33.753Z,10.26
2022-10-04T22:10:01.733Z,9.79
2022-10-04T22:12:31.787Z,10.06
2022-10-04T22:14:59.764Z,9.99
2022-10-04T22:17:27.781Z,9.84
2022-10-04T22:19:57.088Z,9.85
2022-10-04T22:22:25.094Z,9.47
2022-10-04T22:24:53.074Z,9.42
2022-10-04T22:27:21.063Z,9.51
2022-10-04T22:29:49.121Z,9.60
2022-10-04T22:32:22.583Z,9.67
2022-10-04T22:34:51.274Z,9.60
2022-10-04T22:37:23.068Z,9.78
2022-10-04T22:39:51.146Z,9.83
2022-10-04T22:42:19.386Z,10.00
2022-10-04T22:44:47.386Z,9.85
2022-10-04T22:47:16.676Z,9.87
2022-10-04T22:49:45.742Z,9.58
2022-10-04T22:52:14.867Z,9.64
2022-10-04T22:54:45.763Z,9.65
2022-10-04T22:57:15.213Z,9.63
2022-10-04T22:59:44.307Z,9.25
2022-10-04T23:02:15.914Z,9.22
2022-10-04T23:04:45.393Z,9.26
2022-10-04T23:07:13.498Z,9.19
2022-10-04T23:09:41.461Z,9.18
2022-10-04T23:12:10.763Z,9.05
2022-10-04T23:14:39.069Z,9.06
2022-10-04T23:17:22.823Z,9.60
2022-10-04T23:19:51.054Z,8.85
2022-10-04T23:22:21.679Z,9.09
2022-10-04T23:24:49.664Z,9.08
2022-10-04T23:27:18.936Z,9.08
2022-10-04T23:29:47.427Z,8.58
2022-10-04T23:32:18.575Z,8.72
2022-10-04T23:34:47.476Z,8.90
2022-10-04T23:37:17.028Z,8.83
2022-10-04T23:39:45.518Z,9.28
2022-10-04T23:42:17.140Z,8.92
2022-10-04T23:44:47.856Z,9.01
2022-10-04T23:47:16.833Z,9.00
2022-10-04T23:49:45.580Z,9.14
2022-10-04T23:52:17.700Z,9.07
2022-10-04T23:54:45.762Z,9.15
2022-10-04T23:57:18.838Z,9.30
2022-10-04T23:59:48.568Z,9.32
